Terminal Aerodrome Forecast
Issued by NWS

Current Version | Previous Version | Text Only | Print | Product List | Glossary Off
Versions: 1 2 3 4 5 6 7 8 9 10 11 12 13 14 15 16 17 18 19 20 21 22 23 24 25 26 27 28 29 30 31 32 33 34 35 36 37 38 39 40 41 42 43 44 45 46 47

000
FTUS41 KRNK 181137
TAFLWB
TAF
KLWB 181137Z 1812/1912 29008G16KT P6SM OVC035
     FM181400 29010G20KT P6SM BKN028 OVC035
     FM181700 29010G20KT P6SM -SHRA BKN025 OVC035
     FM182300 31008KT P6SM VCSH OVC023
     FM190800 31006KT P6SM OVC023=

USA.gov is the U.S. government's official web portal to all federal, state and local government web resources and services.